createdAt,value
2022-12-03T00:01:44.578Z,20.25
2022-12-03T00:04:11.529Z,19.23
2022-12-03T00:06:38.559Z,20.08
2022-12-03T00:09:05.733Z,19.55
2022-12-03T00:11:32.896Z,21.63
2022-12-03T00:13:59.987Z,19.88
2022-12-03T00:16:27.217Z,18.15
2022-12-03T00:21:21.212Z,21.52
2022-12-03T00:23:48.343Z,22.63
2022-12-03T00:26:15.332Z,21.08
2022-12-03T00:28:44.704Z,22.30
2022-12-03T00:31:11.753Z,20.20
2022-12-03T00:33:39.020Z,21.90
2022-12-03T00:36:06.411Z,21.27
2022-12-03T00:41:00.259Z,22.63
2022-12-03T00:43:27.178Z,19.70
2022-12-03T00:45:54.121Z,22.05
2022-12-03T00:48:23.324Z,21.58
2022-12-03T00:50:50.420Z,23.95
2022-12-03T00:55:44.667Z,21.80
2022-12-03T00:58:11.628Z,20.23
2022-12-03T01:00:40.867Z,21.55
2022-12-03T01:03:10.167Z,22.55
2022-12-03T01:05:37.179Z,22.33
2022-12-03T01:08:06.382Z,20.60
2022-12-03T01:10:33.556Z,20.90
2022-12-03T01:13:02.975Z,23.17
2022-12-03T01:15:29.983Z,24.20
2022-12-03T01:17:56.914Z,23.15
2022-12-03T01:20:24.265Z,22.02
2022-12-03T01:27:47.519Z,21.98
2022-12-03T01:30:17.362Z,22.85
2022-12-03T01:32:48.728Z,22.30
2022-12-03T01:35:15.798Z,20.98
2022-12-03T01:37:42.856Z,22.63
2022-12-03T01:40:19.168Z,24.17
2022-12-03T01:42:46.365Z,22.95
2022-12-03T01:45:22.137Z,23.10
2022-12-03T01:47:49.370Z,25.08
2022-12-03T01:50:30.226Z,22.83
2022-12-03T01:53:00.441Z,21.65
2022-12-03T01:55:30.647Z,23.40
2022-12-03T01:58:00.772Z,23.27
2022-12-03T02:00:30.878Z,25.23
2022-12-03T02:03:07.746Z,24.83
2022-12-03T02:05:38.239Z,24.45
2022-12-03T02:08:34.804Z,26.45
2022-12-03T02:11:28.030Z,23.23
2022-12-03T02:13:59.386Z,24.88
2022-12-03T02:16:28.516Z,23.35
2022-12-03T02:18:59.588Z,21.00
2022-12-03T02:21:44.510Z,26.55
2022-12-03T02:24:36.941Z,23.00
2022-12-03T02:27:06.136Z,22.52
2022-12-03T02:29:33.147Z,27.05
2022-12-03T02:32:02.824Z,25.65
2022-12-03T02:34:34.005Z,25.25
2022-12-03T02:37:07.646Z,26.95
2022-12-03T02:39:40.177Z,23.95
2022-12-03T02:42:26.228Z,26.83
2022-12-03T02:44:53.882Z,26.20
2022-12-03T02:47:23.713Z,27.38
2022-12-03T02:54:47.813Z,25.02
2022-12-03T02:57:18.494Z,28.88
2022-12-03T02:59:46.080Z,25.80
2022-12-03T03:02:14.526Z,24.17
2022-12-03T03:04:42.537Z,27.77
2022-12-03T03:07:12.756Z,25.05
2022-12-03T03:09:42.415Z,26.60
2022-12-03T03:12:12.762Z,25.30
2022-12-03T03:14:41.946Z,24.65
2022-12-03T03:17:11.821Z,27.92
2022-12-03T03:19:41.985Z,26.02
2022-12-03T03:22:14.633Z,25.10
2022-12-03T03:24:43.872Z,26.08
2022-12-03T03:27:13.540Z,27.90
2022-12-03T03:29:42.664Z,26.45
2022-12-03T03:32:14.598Z,28.02
2022-12-03T03:34:44.021Z,26.00
2022-12-03T03:37:10.998Z,27.08
2022-12-03T03:39:38.328Z,26.30
2022-12-03T03:44:32.884Z,25.50
2022-12-03T03:47:00.425Z,24.83
2022-12-03T03:49:30.234Z,28.98
2022-12-03T03:51:57.483Z,28.33
2022-12-03T03:54:24.610Z,26.30
2022-12-03T03:56:54.476Z,30.95
2022-12-03T03:59:21.542Z,27.48
2022-12-03T04:01:48.719Z,28.30
2022-12-03T04:04:23.997Z,27.35
2022-12-03T04:06:50.974Z,24.83
2022-12-03T04:09:18.056Z,26.05
2022-12-03T04:12:03.689Z,24.10
2022-12-03T04:14:30.601Z,27.02
2022-12-03T04:16:57.646Z,24.90
2022-12-03T04:19:24.646Z,23.48
2022-12-03T04:22:10.042Z,22.85
2022-12-03T04:24:39.230Z,25.15
2022-12-03T04:27:24.837Z,22.55
2022-12-03T04:29:51.742Z,21.98
2022-12-03T04:32:37.523Z,26.55
2022-12-03T04:35:23.905Z,22.60
2022-12-03T04:37:50.987Z,24.55
2022-12-03T04:40:36.410Z,22.17
2022-12-03T04:43:08.227Z,21.48
2022-12-03T04:45:36.612Z,23.17
2022-12-03T04:48:03.765Z,21.63
2022-12-03T04:50:30.643Z,22.38
2022-12-03T04:52:59.638Z,21.65
2022-12-03T04:55:26.659Z,24.55
2022-12-03T04:57:53.568Z,19.27
2022-12-03T05:00:20.637Z,22.02
2022-12-03T05:02:47.761Z,22.48
2022-12-03T05:05:14.843Z,22.55
2022-12-03T05:07:42.127Z,20.63
2022-12-03T05:10:11.790Z,21.75
2022-12-03T05:12:40.953Z,22.17
2022-12-03T05:15:08.375Z,21.08
2022-12-03T05:17:37.383Z,22.23
2022-12-03T05:20:25.295Z,24.52
2022-12-03T05:22:54.446Z,22.30
2022-12-03T05:25:23.530Z,20.77
2022-12-03T05:27:50.527Z,20.83
2022-12-03T05:30:17.594Z,20.58
2022-12-03T05:32:44.577Z,20.58
2022-12-03T05:35:11.938Z,21.15
2022-12-03T05:37:41.230Z,20.23
2022-12-03T05:40:08.751Z,19.48
2022-12-03T05:42:54.381Z,20.50
2022-12-03T05:45:32.472Z,20.45
2022-12-03T05:48:00.298Z,26.35
2022-12-03T05:50:30.442Z,21.10
2022-12-03T05:53:00.375Z,21.45
2022-12-03T05:55:28.041Z,20.75
2022-12-03T05:57:55.643Z,22.98
2022-12-03T06:00:42.536Z,20.42
2022-12-03T06:03:10.831Z,20.50
2022-12-03T06:05:38.220Z,20.40
2022-12-03T06:08:05.527Z,22.13
2022-12-03T06:20:21.423Z,21.77
2022-12-03T06:22:49.398Z,20.27
2022-12-03T06:25:17.245Z,21.80
2022-12-03T06:27:44.234Z,21.88
2022-12-03T06:30:12.802Z,19.90
2022-12-03T06:32:42.279Z,21.70
2022-12-03T06:35:09.652Z,19.52
2022-12-03T06:37:41.365Z,20.00
2022-12-03T06:40:11.624Z,22.10
2022-12-03T06:42:38.547Z,20.42
2022-12-03T06:45:08.713Z,21.73
2022-12-03T06:47:35.892Z,20.63
2022-12-03T06:50:02.875Z,22.33
2022-12-03T06:52:29.850Z,20.42
2022-12-03T06:54:56.865Z,20.45
2022-12-03T06:57:23.822Z,24.40
2022-12-03T06:59:51.186Z,22.23
2022-12-03T07:02:20.875Z,20.88
2022-12-03T07:04:50.327Z,23.23
2022-12-03T07:07:19.374Z,21.55
2022-12-03T07:09:46.411Z,22.00
2022-12-03T07:12:13.369Z,22.67
2022-12-03T07:14:47.163Z,21.92
2022-12-03T07:17:14.543Z,20.30
2022-12-03T07:19:45.975Z,24.15
2022-12-03T07:22:15.219Z,22.77
2022-12-03T07:24:42.369Z,20.13
2022-12-03T07:27:09.324Z,25.88
2022-12-03T07:29:36.799Z,23.75
2022-12-03T07:32:03.966Z,22.30
2022-12-03T07:34:31.804Z,21.38
2022-12-03T07:36:58.766Z,23.42
2022-12-03T07:39:25.864Z,22.67
2022-12-03T07:41:53.052Z,21.45
2022-12-03T07:44:19.998Z,23.08
2022-12-03T07:46:47.032Z,22.20
2022-12-03T07:49:14.140Z,27.63
2022-12-03T07:51:46.190Z,23.10
2022-12-03T07:54:35.202Z,23.42
2022-12-03T07:57:02.611Z,23.63
2022-12-03T08:01:57.192Z,24.58
2022-12-03T08:04:24.849Z,23.73
2022-12-03T08:06:51.871Z,25.70
2022-12-03T08:09:19.111Z,22.92
2022-12-03T08:11:50.695Z,23.52
2022-12-03T08:14:20.550Z,24.02
2022-12-03T08:16:48.489Z,23.08
2022-12-03T08:19:17.144Z,23.85
2022-12-03T08:25:38.089Z,22.58
2022-12-03T08:28:29.763Z,23.30
2022-12-03T08:31:21.207Z,23.45
2022-12-03T08:33:50.982Z,23.27
2022-12-03T08:36:28.244Z,22.83
2022-12-03T08:39:04.468Z,20.48
2022-12-03T08:41:52.323Z,26.75
2022-12-03T08:44:29.835Z,23.90
2022-12-03T08:47:09.315Z,22.00
2022-12-03T08:49:37.194Z,22.02
2022-12-03T08:52:16.064Z,24.23
2022-12-03T08:54:47.787Z,23.55
2022-12-03T08:57:31.080Z,24.05
2022-12-03T09:00:16.317Z,24.48
2022-12-03T09:02:55.513Z,22.80
2022-12-03T09:05:32.386Z,23.17
2022-12-03T09:07:59.652Z,24.48
2022-12-03T09:10:31.336Z,23.63
2022-12-03T09:12:58.369Z,23.65
2022-12-03T09:15:25.411Z,26.63
2022-12-03T09:17:52.546Z,27.67
2022-12-03T09:20:21.591Z,23.38
2022-12-03T09:22:48.755Z,24.27
2022-12-03T09:25:16.572Z,22.00
2022-12-03T09:27:45.962Z,23.25
2022-12-03T09:30:13.237Z,21.98
2022-12-03T09:32:42.330Z,24.40
2022-12-03T09:35:09.948Z,22.35
2022-12-03T09:37:41.469Z,23.27
2022-12-03T09:40:09.656Z,22.25
2022-12-03T09:42:39.767Z,28.17
2022-12-03T09:45:12.589Z,22.52
2022-12-03T09:47:43.947Z,19.35
2022-12-03T09:50:16.657Z,21.27
2022-12-03T09:52:45.403Z,21.83
2022-12-03T09:55:18.158Z,19.50
2022-12-03T09:57:45.288Z,20.58
2022-12-03T10:00:18.971Z,18.83
2022-12-03T10:02:47.689Z,18.75
2022-12-03T10:05:15.249Z,17.25
2022-12-03T10:07:50.401Z,18.00
2022-12-03T10:10:21.797Z,17.40
2022-12-03T10:12:51.397Z,17.95
2022-12-03T10:15:23.865Z,16.88
2022-12-03T10:17:54.646Z,17.08
2022-12-03T10:20:23.976Z,19.13
2022-12-03T10:22:51.008Z,18.42
2022-12-03T10:25:26.780Z,17.92
2022-12-03T10:28:02.465Z,18.80
2022-12-03T10:30:32.156Z,20.20
2022-12-03T10:33:02.861Z,18.73
2022-12-03T10:35:41.244Z,16.45
2022-12-03T10:38:28.927Z,16.35
2022-12-03T10:40:56.000Z,17.13
2022-12-03T10:43:25.404Z,15.15
2022-12-03T10:46:10.396Z,17.48
2022-12-03T10:48:40.199Z,17.02
2022-12-03T10:51:18.380Z,15.68
2022-12-03T10:53:47.524Z,17.00
2022-12-03T10:56:37.259Z,17.90
2022-12-03T10:59:04.438Z,16.08
2022-12-03T11:01:34.687Z,17.77
2022-12-03T11:04:09.561Z,17.08
2022-12-03T11:06:37.126Z,16.67
2022-12-03T11:09:26.883Z,16.35
2022-12-03T11:11:54.565Z,17.73
2022-12-03T11:15:05.217Z,15.50
2022-12-03T11:17:54.050Z,16.00
2022-12-03T11:20:23.128Z,17.20
2022-12-03T11:22:51.203Z,17.60
2022-12-03T11:25:27.531Z,16.98
2022-12-03T11:28:15.478Z,17.50
2022-12-03T11:30:51.855Z,17.02
2022-12-03T11:33:43.313Z,17.88
2022-12-03T11:36:15.543Z,17.15
2022-12-03T11:38:53.311Z,17.55
2022-12-03T11:41:26.257Z,17.13
2022-12-03T11:43:53.252Z,18.63
2022-12-03T11:46:46.577Z,47.05
2022-12-03T11:49:31.181Z,16.17
2022-12-03T11:52:11.840Z,17.60
2022-12-03T11:54:44.115Z,17.77
2022-12-03T11:57:41.783Z,19.60
2022-12-03T12:00:21.605Z,18.77
2022-12-03T12:02:49.327Z,18.55
2022-12-03T12:05:30.590Z,17.92
2022-12-03T12:08:03.335Z,17.02
2022-12-03T12:10:40.846Z,17.55
2022-12-03T12:13:26.275Z,15.65
2022-12-03T12:15:53.460Z,16.98
2022-12-03T12:18:38.111Z,16.63
2022-12-03T12:21:48.096Z,16.40
2022-12-03T12:24:47.009Z,16.92
2022-12-03T12:27:37.933Z,16.90
2022-12-03T12:30:10.606Z,21.42
2022-12-03T12:32:50.188Z,16.67
2022-12-03T12:35:25.722Z,13.55
2022-12-03T12:37:59.562Z,14.60
2022-12-03T12:40:34.629Z,15.25
2022-12-03T12:43:25.928Z,17.52
2022-12-03T12:46:00.811Z,17.40
2022-12-03T12:48:41.503Z,15.02
2022-12-03T12:51:11.199Z,13.68
2022-12-03T12:53:40.404Z,14.85
2022-12-03T12:56:27.535Z,16.85
2022-12-03T12:58:56.992Z,13.07
2022-12-03T13:01:32.230Z,15.65
2022-12-03T13:04:06.137Z,13.65
2022-12-03T13:06:37.574Z,15.07
2022-12-03T13:09:09.111Z,14.38
2022-12-03T13:11:42.149Z,15.27
2022-12-03T13:14:18.999Z,16.55
2022-12-03T13:16:53.367Z,15.18
2022-12-03T13:19:47.575Z,15.55
2022-12-03T13:22:20.134Z,16.08
2022-12-03T13:24:51.264Z,13.52
2022-12-03T13:27:18.199Z,15.18
2022-12-03T13:29:57.467Z,18.20
2022-12-03T13:32:33.499Z,16.65
2022-12-03T13:35:06.297Z,14.48
2022-12-03T13:37:33.664Z,16.60
